sensor_id;sensor_type;location;lat;lon;timestamp;pressure;altitude;pressure_sealevel;temperature;humidity
26657;BME280;14279;50.010;8.260;2022-12-29T00:01:15;99743.50;;;11.55;73.73
26657;BME280;14279;50.010;8.260;2022-12-29T00:03:40;99730.19;;;11.60;73.58
26657;BME280;14279;50.010;8.260;2022-12-29T00:06:05;99740.06;;;11.54;73.66
26657;BME280;14279;50.010;8.260;2022-12-29T00:08:30;99727.03;;;11.54;74.07
26657;BME280;14279;50.010;8.260;2022-12-29T00:11:09;99722.19;;;11.63;73.57
26657;BME280;14279;50.010;8.260;2022-12-29T00:13:35;99738.69;;;11.63;73.75
26657;BME280;14279;50.010;8.260;2022-12-29T00:16:19;99724.22;;;11.57;73.66
26657;BME280;14279;50.010;8.260;2022-12-29T00:18:44;99729.91;;;11.64;73.45
26657;BME280;14279;50.010;8.260;2022-12-29T00:21:14;99728.13;;;11.65;73.61
26657;BME280;14279;50.010;8.260;2022-12-29T00:23:58;99725.72;;;11.76;73.36
26657;BME280;14279;50.010;8.260;2022-12-29T00:26:42;99720.59;;;11.75;73.21
26657;BME280;14279;50.010;8.260;2022-12-29T00:29:26;99730.84;;;11.63;74.01
26657;BME280;14279;50.010;8.260;2022-12-29T00:32:10;99732.34;;;11.67;74.07
26657;BME280;14279;50.010;8.260;2022-12-29T00:34:54;99731.69;;;11.64;74.42
26657;BME280;14279;50.010;8.260;2022-12-29T00:37:41;99731.78;;;11.62;74.79
26657;BME280;14279;50.010;8.260;2022-12-29T00:40:25;99730.28;;;11.58;75.27
26657;BME280;14279;50.010;8.260;2022-12-29T00:43:09;99731.09;;;11.58;75.16
26657;BME280;14279;50.010;8.260;2022-12-29T00:45:53;99726.84;;;11.72;75.31
26657;BME280;14279;50.010;8.260;2022-12-29T00:48:19;99721.44;;;11.61;75.53
26657;BME280;14279;50.010;8.260;2022-12-29T00:51:04;99729.66;;;11.54;76.50
26657;BME280;14279;50.010;8.260;2022-12-29T00:53:30;99716.31;;;11.59;76.50
26657;BME280;14279;50.010;8.260;2022-12-29T00:55:55;99727.28;;;11.50;77.21
26657;BME280;14279;50.010;8.260;2022-12-29T00:58:20;99721.81;;;11.69;76.66
26657;BME280;14279;50.010;8.260;2022-12-29T01:00:45;99733.63;;;11.60;76.92
26657;BME280;14279;50.010;8.260;2022-12-29T01:03:10;99726.66;;;11.46;77.73
26657;BME280;14279;50.010;8.260;2022-12-29T01:05:36;99723.56;;;11.54;77.70
26657;BME280;14279;50.010;8.260;2022-12-29T01:08:01;99726.75;;;11.59;77.43
26657;BME280;14279;50.010;8.260;2022-12-29T01:10:27;99709.31;;;11.60;77.73
26657;BME280;14279;50.010;8.260;2022-12-29T01:12:52;99716.69;;;11.53;78.06
26657;BME280;14279;50.010;8.260;2022-12-29T01:15:17;99707.19;;;11.37;79.06
26657;BME280;14279;50.010;8.260;2022-12-29T01:17:42;99718.53;;;11.36;79.26
26657;BME280;14279;50.010;8.260;2022-12-29T01:20:08;99705.16;;;11.42;79.01
26657;BME280;14279;50.010;8.260;2022-12-29T01:22:34;99707.94;;;11.39;79.57
26657;BME280;14279;50.010;8.260;2022-12-29T01:24:59;99702.16;;;11.49;79.28
26657;BME280;14279;50.010;8.260;2022-12-29T01:27:24;99714.91;;;11.39;79.59
26657;BME280;14279;50.010;8.260;2022-12-29T01:29:49;99703.66;;;11.38;79.67
26657;BME280;14279;50.010;8.260;2022-12-29T01:32:14;99714.34;;;11.34;79.96
26657;BME280;14279;50.010;8.260;2022-12-29T01:34:40;99701.25;;;11.35;79.94
26657;BME280;14279;50.010;8.260;2022-12-29T01:37:05;99710.38;;;11.42;79.72
26657;BME280;14279;50.010;8.260;2022-12-29T01:39:30;99701.53;;;11.45;79.57
26657;BME280;14279;50.010;8.260;2022-12-29T01:41:55;99699.66;;;11.47;79.37
26657;BME280;14279;50.010;8.260;2022-12-29T01:44:56;99703.28;;;11.45;79.65
26657;BME280;14279;50.010;8.260;2022-12-29T01:50:03;99699.19;;;11.40;79.87
26657;BME280;14279;50.010;8.260;2022-12-29T01:52:32;99710.91;;;11.33;80.19
26657;BME280;14279;50.010;8.260;2022-12-29T01:54:59;99698.06;;;11.30;80.49
26657;BME280;14279;50.010;8.260;2022-12-29T01:57:31;99703.09;;;11.48;79.95
26657;BME280;14279;50.010;8.260;2022-12-29T02:00:02;99697.78;;;11.35;80.81
26657;BME280;14279;50.010;8.260;2022-12-29T02:02:29;99703.56;;;11.40;80.71
26657;BME280;14279;50.010;8.260;2022-12-29T02:04:57;99705.41;;;11.23;82.31
26657;BME280;14279;50.010;8.260;2022-12-29T02:07:24;99687.00;;;11.26;82.48
26657;BME280;14279;50.010;8.260;2022-12-29T02:09:52;99692.75;;;11.32;82.17
26657;BME280;14279;50.010;8.260;2022-12-29T02:12:20;99704.38;;;11.26;90.33
26657;BME280;14279;50.010;8.260;2022-12-29T02:14:47;99697.59;;;11.38;83.27
26657;BME280;14279;50.010;8.260;2022-12-29T02:29:00;99664.72;;;11.21;83.78
26657;BME280;14279;50.010;8.260;2022-12-29T02:31:48;99657.47;;;11.26;83.41
26657;BME280;14279;50.010;8.260;2022-12-29T02:34:40;99665.31;;;11.11;83.61
26657;BME280;14279;50.010;8.260;2022-12-29T02:37:21;99659.09;;;11.28;82.74
26657;BME280;14279;50.010;8.260;2022-12-29T02:39:52;99661.84;;;11.40;82.33
26657;BME280;14279;50.010;8.260;2022-12-29T02:42:33;99657.00;;;11.34;82.18
26657;BME280;14279;50.010;8.260;2022-12-29T02:45:22;99649.13;;;11.35;82.08
26657;BME280;14279;50.010;8.260;2022-12-29T02:48:04;99634.78;;;11.42;81.38
26657;BME280;14279;50.010;8.260;2022-12-29T02:50:37;99649.41;;;11.45;81.36
26657;BME280;14279;50.010;8.260;2022-12-29T02:53:09;99642.22;;;11.49;80.82
26657;BME280;14279;50.010;8.260;2022-12-29T02:55:36;99636.06;;;11.50;81.76
26657;BME280;14279;50.010;8.260;2022-12-29T02:58:16;99630.69;;;11.38;82.87
26657;BME280;14279;50.010;8.260;2022-12-29T03:00:54;99625.31;;;11.41;82.00
26657;BME280;14279;50.010;8.260;2022-12-29T03:06:15;99627.88;;;11.56;81.33
26657;BME280;14279;50.010;8.260;2022-12-29T03:11:32;99616.16;;;11.63;80.97
26657;BME280;14279;50.010;8.260;2022-12-29T03:14:27;99615.09;;;11.66;80.78
26657;BME280;14279;50.010;8.260;2022-12-29T03:17:20;99614.75;;;11.57;80.62
26657;BME280;14279;50.010;8.260;2022-12-29T03:19:51;99603.94;;;11.64;80.02
26657;BME280;14279;50.010;8.260;2022-12-29T03:22:22;99608.13;;;11.66;79.81
26657;BME280;14279;50.010;8.260;2022-12-29T03:24:57;99597.91;;;11.63;79.78
26657;BME280;14279;50.010;8.260;2022-12-29T03:27:28;99603.13;;;11.63;79.26
26657;BME280;14279;50.010;8.260;2022-12-29T03:29:58;99605.22;;;11.71;78.62
26657;BME280;14279;50.010;8.260;2022-12-29T03:32:30;99604.09;;;11.75;78.14
26657;BME280;14279;50.010;8.260;2022-12-29T03:34:57;99596.16;;;11.91;77.24
26657;BME280;14279;50.010;8.260;2022-12-29T03:37:31;99611.53;;;11.81;77.45
26657;BME280;14279;50.010;8.260;2022-12-29T03:39:59;99597.16;;;11.88;76.68
26657;BME280;14279;50.010;8.260;2022-12-29T03:42:26;99611.69;;;11.93;76.50
26657;BME280;14279;50.010;8.260;2022-12-29T03:44:56;99604.91;;;11.90;75.87
26657;BME280;14279;50.010;8.260;2022-12-29T03:47:21;99594.44;;;12.05;74.95
26657;BME280;14279;50.010;8.260;2022-12-29T03:49:48;99587.66;;;12.02;74.58
26657;BME280;14279;50.010;8.260;2022-12-29T03:52:13;99598.19;;;12.00;74.38
26657;BME280;14279;50.010;8.260;2022-12-29T03:54:38;99584.16;;;12.29;73.42
26657;BME280;14279;50.010;8.260;2022-12-29T03:57:04;99567.13;;;12.10;73.61
26657;BME280;14279;50.010;8.260;2022-12-29T03:59:29;99576.75;;;12.23;73.53
26657;BME280;14279;50.010;8.260;2022-12-29T04:01:54;99591.97;;;12.16;73.17
26657;BME280;14279;50.010;8.260;2022-12-29T04:04:20;99578.41;;;12.11;73.41
26657;BME280;14279;50.010;8.260;2022-12-29T04:06:45;99586.47;;;12.21;72.93
26657;BME280;14279;50.010;8.260;2022-12-29T04:09:10;99581.00;;;12.11;72.83
26657;BME280;14279;50.010;8.260;2022-12-29T04:11:36;99583.16;;;12.31;72.40
26657;BME280;14279;50.010;8.260;2022-12-29T04:14:01;99589.03;;;12.08;72.44
26657;BME280;14279;50.010;8.260;2022-12-29T04:16:26;99578.53;;;12.22;72.03
26657;BME280;14279;50.010;8.260;2022-12-29T04:18:52;99582.59;;;12.26;71.68
26657;BME280;14279;50.010;8.260;2022-12-29T04:21:17;99575.72;;;12.25;72.08
26657;BME280;14279;50.010;8.260;2022-12-29T04:23:42;99581.63;;;12.14;72.38
26657;BME280;14279;50.010;8.260;2022-12-29T04:26:08;99582.59;;;12.26;71.92
26657;BME280;14279;50.010;8.260;2022-12-29T04:28:34;99581.56;;;12.29;71.81
26657;BME280;14279;50.010;8.260;2022-12-29T04:30:59;99586.53;;;12.19;72.06
26657;BME280;14279;50.010;8.260;2022-12-29T04:33:25;99587.44;;;12.32;71.10
26657;BME280;14279;50.010;8.260;2022-12-29T04:35:51;99566.22;;;12.24;71.28
26657;BME280;14279;50.010;8.260;2022-12-29T04:38:19;99576.78;;;12.36;70.92
26657;BME280;14279;50.010;8.260;2022-12-29T04:40:45;99578.88;;;12.30;70.94
26657;BME280;14279;50.010;8.260;2022-12-29T04:43:11;99570.81;;;12.21;71.30
26657;BME280;14279;50.010;8.260;2022-12-29T04:45:36;99569.03;;;12.21;71.37
26657;BME280;14279;50.010;8.260;2022-12-29T04:48:02;99577.28;;;12.28;71.17
26657;BME280;14279;50.010;8.260;2022-12-29T04:50:27;99576.09;;;12.19;71.69
26657;BME280;14279;50.010;8.260;2022-12-29T04:52:53;99592.50;;;12.21;71.94
26657;BME280;14279;50.010;8.260;2022-12-29T04:55:18;99579.56;;;12.20;71.90
26657;BME280;14279;50.010;8.260;2022-12-29T04:57:44;99576.81;;;12.08;73.06
26657;BME280;14279;50.010;8.260;2022-12-29T05:00:09;99576.94;;;12.07;73.73
26657;BME280;14279;50.010;8.260;2022-12-29T05:02:36;99580.56;;;12.04;74.13
26657;BME280;14279;50.010;8.260;2022-12-29T05:05:02;99583.19;;;11.90;74.67
26657;BME280;14279;50.010;8.260;2022-12-29T05:07:27;99584.50;;;11.82;75.60
26657;BME280;14279;50.010;8.260;2022-12-29T05:09:52;99586.78;;;11.74;77.72
26657;BME280;14279;50.010;8.260;2022-12-29T05:12:17;99594.06;;;11.69;79.11
26657;BME280;14279;50.010;8.260;2022-12-29T05:14:43;99585.88;;;11.61;81.16
26657;BME280;14279;50.010;8.260;2022-12-29T05:17:08;99585.88;;;11.61;80.92
26657;BME280;14279;50.010;8.260;2022-12-29T05:19:33;99594.09;;;11.54;80.24
26657;BME280;14279;50.010;8.260;2022-12-29T05:21:58;99590.00;;;11.50;80.65
26657;BME280;14279;50.010;8.260;2022-12-29T05:24:24;99585.25;;;11.57;79.68
26657;BME280;14279;50.010;8.260;2022-12-29T05:26:49;99590.34;;;11.73;78.73
26657;BME280;14279;50.010;8.260;2022-12-29T05:29:14;99581.72;;;11.85;78.29
26657;BME280;14279;50.010;8.260;2022-12-29T05:31:40;99580.53;;;11.77;77.62
26657;BME280;14279;50.010;8.260;2022-12-29T05:34:05;99586.88;;;11.72;78.51
26657;BME280;14279;50.010;8.260;2022-12-29T05:36:30;99584.44;;;11.69;78.53
26657;BME280;14279;50.010;8.260;2022-12-29T05:38:55;99571.03;;;11.76;78.43
26657;BME280;14279;50.010;8.260;2022-12-29T05:41:21;99569.66;;;11.70;78.27
26657;BME280;14279;50.010;8.260;2022-12-29T05:43:46;99574.56;;;11.75;78.43
26657;BME280;14279;50.010;8.260;2022-12-29T05:46:11;99576.91;;;11.79;77.38
26657;BME280;14279;50.010;8.260;2022-12-29T05:48:37;99567.53;;;11.90;77.07
26657;BME280;14279;50.010;8.260;2022-12-29T05:51:02;99570.91;;;11.92;76.31
26657;BME280;14279;50.010;8.260;2022-12-29T05:53:27;99574.63;;;11.87;75.29
26657;BME280;14279;50.010;8.260;2022-12-29T05:55:52;99563.50;;;11.98;75.10
26657;BME280;14279;50.010;8.260;2022-12-29T05:58:19;99571.09;;;12.03;74.28
26657;BME280;14279;50.010;8.260;2022-12-29T06:00:44;99572.34;;;12.10;73.59
26657;BME280;14279;50.010;8.260;2022-12-29T06:03:10;99573.31;;;12.22;72.90
26657;BME280;14279;50.010;8.260;2022-12-29T06:05:35;99575.91;;;12.22;72.81
26657;BME280;14279;50.010;8.260;2022-12-29T06:08:00;99567.16;;;12.23;72.51
26657;BME280;14279;50.010;8.260;2022-12-29T06:10:26;99582.59;;;12.26;72.37
26657;BME280;14279;50.010;8.260;2022-12-29T06:12:51;99576.44;;;12.27;71.97
26657;BME280;14279;50.010;8.260;2022-12-29T06:15:17;99578.94;;;12.29;71.46
26657;BME280;14279;50.010;8.260;2022-12-29T06:17:42;99581.88;;;12.24;72.08
26657;BME280;14279;50.010;8.260;2022-12-29T06:20:08;99581.66;;;12.27;72.06
26657;BME280;14279;50.010;8.260;2022-12-29T06:22:34;99587.53;;;12.44;71.36
26657;BME280;14279;50.010;8.260;2022-12-29T06:24:59;99585.38;;;12.38;71.63
26657;BME280;14279;50.010;8.260;2022-12-29T06:27:26;99586.91;;;12.40;72.14
26657;BME280;14279;50.010;8.260;2022-12-29T06:29:51;99582.94;;;12.35;71.84
26657;BME280;14279;50.010;8.260;2022-12-29T06:32:17;99578.16;;;12.41;71.78
26657;BME280;14279;50.010;8.260;2022-12-29T06:34:42;99578.25;;;12.27;73.11
26657;BME280;14279;50.010;8.260;2022-12-29T06:37:07;99573.31;;;12.22;73.61
26657;BME280;14279;50.010;8.260;2022-12-29T06:39:32;99591.97;;;12.16;75.17
26657;BME280;14279;50.010;8.260;2022-12-29T06:41:58;99578.63;;;12.21;74.02
26657;BME280;14279;50.010;8.260;2022-12-29T06:44:23;99569.44;;;12.15;74.31
26657;BME280;14279;50.010;8.260;2022-12-29T06:46:49;99591.03;;;12.17;74.06
26657;BME280;14279;50.010;8.260;2022-12-29T06:49:16;99577.34;;;12.13;74.26
26657;BME280;14279;50.010;8.260;2022-12-29T06:51:41;99570.41;;;12.27;73.45
26657;BME280;14279;50.010;8.260;2022-12-29T06:54:07;99568.47;;;12.16;72.81
26657;BME280;14279;50.010;8.260;2022-12-29T06:56:32;99565.47;;;12.22;73.65
26657;BME280;14279;50.010;8.260;2022-12-29T06:58:57;99562.88;;;12.22;72.82
26657;BME280;14279;50.010;8.260;2022-12-29T07:01:25;99572.59;;;12.33;72.03
26657;BME280;14279;50.010;8.260;2022-12-29T07:03:50;99565.47;;;12.22;72.02
26657;BME280;14279;50.010;8.260;2022-12-29T07:06:15;99556.00;;;12.47;71.05
26657;BME280;14279;50.010;8.260;2022-12-29T07:08:41;99561.22;;;12.34;70.70
26657;BME280;14279;50.010;8.260;2022-12-29T07:11:06;99573.97;;;12.39;70.46
26657;BME280;14279;50.010;8.260;2022-12-29T07:13:31;99578.25;;;12.40;70.21
26657;BME280;14279;50.010;8.260;2022-12-29T07:15:56;99564.50;;;12.51;69.59
26657;BME280;14279;50.010;8.260;2022-12-29T07:18:22;99571.69;;;12.60;68.99
26657;BME280;14279;50.010;8.260;2022-12-29T07:20:47;99569.00;;;12.61;68.79
26657;BME280;14279;50.010;8.260;2022-12-29T07:23:13;99581.09;;;12.50;69.20
26657;BME280;14279;50.010;8.260;2022-12-29T07:25:38;99579.63;;;12.58;68.88
26657;BME280;14279;50.010;8.260;2022-12-29T07:28:05;99578.06;;;12.56;68.61
26657;BME280;14279;50.010;8.260;2022-12-29T07:30:31;99585.47;;;12.49;68.64
26657;BME280;14279;50.010;8.260;2022-12-29T07:32:56;99593.09;;;12.52;68.78
26657;BME280;14279;50.010;8.260;2022-12-29T07:35:21;99605.63;;;12.47;69.21
26657;BME280;14279;50.010;8.260;2022-12-29T07:37:47;99587.22;;;12.36;69.60
26657;BME280;14279;50.010;8.260;2022-12-29T07:40:13;99599.84;;;12.42;69.70
26657;BME280;14279;50.010;8.260;2022-12-29T07:42:39;99603.34;;;12.55;69.44
26657;BME280;14279;50.010;8.260;2022-12-29T07:45:05;99613.66;;;12.44;70.06
26657;BME280;14279;50.010;8.260;2022-12-29T07:47:30;99603.03;;;12.60;69.49
26657;BME280;14279;50.010;8.260;2022-12-29T07:49:55;99602.38;;;12.43;70.20
26657;BME280;14279;50.010;8.260;2022-12-29T07:52:20;99602.25;;;12.45;70.59
26657;BME280;14279;50.010;8.260;2022-12-29T07:54:45;99613.34;;;12.48;70.64
26657;BME280;14279;50.010;8.260;2022-12-29T07:57:11;99614.84;;;12.25;71.90
26657;BME280;14279;50.010;8.260;2022-12-29T07:59:36;99615.50;;;12.42;71.46
26657;BME280;14279;50.010;8.260;2022-12-29T08:02:01;99620.00;;;12.27;72.10
26657;BME280;14279;50.010;8.260;2022-12-29T08:04:27;99625.09;;;12.28;71.75
26657;BME280;14279;50.010;8.260;2022-12-29T08:06:52;99628.38;;;12.45;71.36
26657;BME280;14279;50.010;8.260;2022-12-29T08:09:17;99640.38;;;12.35;71.37
26657;BME280;14279;50.010;8.260;2022-12-29T08:11:42;99638.28;;;12.12;72.92
26657;BME280;14279;50.010;8.260;2022-12-29T08:14:08;99634.25;;;12.21;73.03
26657;BME280;14279;50.010;8.260;2022-12-29T08:16:34;99633.50;;;12.19;74.04
26657;BME280;14279;50.010;8.260;2022-12-29T08:18:59;99643.25;;;12.02;74.77
26657;BME280;14279;50.010;8.260;2022-12-29T08:21:27;99644.69;;;12.21;74.24
26657;BME280;14279;50.010;8.260;2022-12-29T08:23:52;99641.06;;;12.24;74.45
26657;BME280;14279;50.010;8.260;2022-12-29T08:26:17;99636.84;;;12.21;73.56
26657;BME280;14279;50.010;8.260;2022-12-29T08:28:43;99643.16;;;12.31;73.30
26657;BME280;14279;50.010;8.260;2022-12-29T08:31:08;99635.84;;;12.24;73.64
26657;BME280;14279;50.010;8.260;2022-12-29T08:33:33;99636.16;;;12.32;73.36
26657;BME280;14279;50.010;8.260;2022-12-29T08:36:00;99640.75;;;12.28;72.98
26657;BME280;14279;50.010;8.260;2022-12-29T08:38:27;99643.75;;;12.22;76.05
26657;BME280;14279;50.010;8.260;2022-12-29T08:40:52;99657.19;;;12.16;76.00
26657;BME280;14279;50.010;8.260;2022-12-29T08:43:18;99657.69;;;12.08;76.88
26657;BME280;14279;50.010;8.260;2022-12-29T08:45:43;99664.16;;;11.88;77.74
26657;BME280;14279;50.010;8.260;2022-12-29T08:48:08;99667.53;;;11.47;82.63
26657;BME280;14279;50.010;8.260;2022-12-29T08:50:34;99668.56;;;11.44;84.15
26657;BME280;14279;50.010;8.260;2022-12-29T08:52:59;99659.91;;;11.43;85.00
26657;BME280;14279;50.010;8.260;2022-12-29T08:55:24;99665.88;;;11.31;85.59
26657;BME280;14279;50.010;8.260;2022-12-29T08:57:49;99660.19;;;11.39;84.92
26657;BME280;14279;50.010;8.260;2022-12-29T09:00:15;99661.97;;;11.38;84.59
26657;BME280;14279;50.010;8.260;2022-12-29T09:02:40;99665.09;;;11.43;84.11
26657;BME280;14279;50.010;8.260;2022-12-29T09:05:05;99669.69;;;11.54;84.32
26657;BME280;14279;50.010;8.260;2022-12-29T09:07:31;99677.88;;;11.48;83.73
26657;BME280;14279;50.010;8.260;2022-12-29T09:09:56;99680.13;;;11.54;84.20
26657;BME280;14279;50.010;8.260;2022-12-29T09:12:21;99696.97;;;11.63;83.63
26657;BME280;14279;50.010;8.260;2022-12-29T09:14:47;99692.78;;;11.46;84.53
26657;BME280;14279;50.010;8.260;2022-12-29T09:17:12;99686.16;;;11.40;84.76
26657;BME280;14279;50.010;8.260;2022-12-29T09:19:56;99701.31;;;11.34;86.32
26657;BME280;14279;50.010;8.260;2022-12-29T09:22:21;99708.94;;;11.22;87.36
26657;BME280;14279;50.010;8.260;2022-12-29T09:24:46;99699.28;;;11.24;88.66
26657;BME280;14279;50.010;8.260;2022-12-29T09:27:12;99698.59;;;11.06;89.45
26657;BME280;14279;50.010;8.260;2022-12-29T09:29:37;99702.88;;;11.07;90.00
26657;BME280;14279;50.010;8.260;2022-12-29T09:32:03;99717.22;;;11.15;89.71
26657;BME280;14279;50.010;8.260;2022-12-29T09:34:28;99724.00;;;11.03;89.32
26657;BME280;14279;50.010;8.260;2022-12-29T09:36:53;99716.13;;;11.19;89.12
26657;BME280;14279;50.010;8.260;2022-12-29T09:39:19;99707.63;;;11.15;88.95
26657;BME280;14279;50.010;8.260;2022-12-29T09:41:49;99715.78;;;11.09;88.50
26657;BME280;14279;50.010;8.260;2022-12-29T09:44:41;99720.38;;;11.20;88.33
26657;BME280;14279;50.010;8.260;2022-12-29T09:47:13;99719.72;;;11.16;88.66
26657;BME280;14279;50.010;8.260;2022-12-29T09:52:26;99727.38;;;10.89;93.40
26657;BME280;14279;50.010;8.260;2022-12-29T09:55:14;99715.94;;;10.91;88.55
26657;BME280;14279;50.010;8.260;2022-12-29T09:58:04;99716.22;;;10.87;89.07
26657;BME280;14279;50.010;8.260;2022-12-29T10:00:50;99724.34;;;10.96;88.93
26657;BME280;14279;50.010;8.260;2022-12-29T10:03:20;99713.63;;;10.87;87.89
26657;BME280;14279;50.010;8.260;2022-12-29T10:09:09;99689.09;;;10.91;85.60
26657;BME280;14279;50.010;8.260;2022-12-29T10:11:52;99695.13;;;10.91;85.77
26657;BME280;14279;50.010;8.260;2022-12-29T10:14:43;99701.47;;;11.02;85.85
26657;BME280;14279;50.010;8.260;2022-12-29T10:23:27;99715.91;;;11.07;82.77
26657;BME280;14279;50.010;8.260;2022-12-29T10:25:56;99707.91;;;11.10;81.99
26657;BME280;14279;50.010;8.260;2022-12-29T10:28:24;99715.44;;;11.15;81.13
26657;BME280;14279;50.010;8.260;2022-12-29T10:30:56;99722.03;;;11.21;79.75
26657;BME280;14279;50.010;8.260;2022-12-29T10:33:32;99708.38;;;11.17;79.04
26657;BME280;14279;50.010;8.260;2022-12-29T10:35:59;99708.66;;;11.27;78.78
26657;BME280;14279;50.010;8.260;2022-12-29T10:38:35;99704.47;;;11.39;77.86
26657;BME280;14279;50.010;8.260;2022-12-29T10:41:13;99709.53;;;11.42;76.16
26657;BME280;14279;50.010;8.260;2022-12-29T10:43:49;99722.19;;;11.48;76.35
26657;BME280;14279;50.010;8.260;2022-12-29T10:46:18;99708.03;;;11.52;75.71
26657;BME280;14279;50.010;8.260;2022-12-29T10:48:45;99713.13;;;11.68;75.76
26657;BME280;14279;50.010;8.260;2022-12-29T10:51:24;99717.06;;;11.76;73.50
26657;BME280;14279;50.010;8.260;2022-12-29T10:54:03;99711.75;;;11.77;73.81
26657;BME280;14279;50.010;8.260;2022-12-29T10:56:52;99711.63;;;11.93;73.02
26657;BME280;14279;50.010;8.260;2022-12-29T10:59:23;99700.06;;;11.97;72.03
26657;BME280;14279;50.010;8.260;2022-12-29T11:07:01;99714.31;;;12.21;70.93
26657;BME280;14279;50.010;8.260;2022-12-29T11:09:32;99737.69;;;12.37;70.58
26657;BME280;14279;50.010;8.260;2022-12-29T11:11:59;99727.66;;;12.43;70.59
26657;BME280;14279;50.010;8.260;2022-12-29T11:14:29;99723.13;;;12.60;69.78
26657;BME280;14279;50.010;8.260;2022-12-29T11:17:00;99730.25;;;12.71;69.38
26657;BME280;14279;50.010;8.260;2022-12-29T11:19:27;99734.66;;;12.70;69.48
26657;BME280;14279;50.010;8.260;2022-12-29T11:21:53;99744.13;;;12.58;69.87
26657;BME280;14279;50.010;8.260;2022-12-29T11:24:21;99729.63;;;12.67;70.11
26657;BME280;14279;50.010;8.260;2022-12-29T11:26:49;99721.09;;;12.78;69.40
26657;BME280;14279;50.010;8.260;2022-12-29T11:29:23;99720.78;;;12.83;68.68
26657;BME280;14279;50.010;8.260;2022-12-29T11:31:54;99723.41;;;12.83;67.99
26657;BME280;14279;50.010;8.260;2022-12-29T11:36:46;99724.72;;;13.16;68.32
26657;BME280;14279;50.010;8.260;2022-12-29T11:39:30;99727.84;;;13.08;67.57
26657;BME280;14279;50.010;8.260;2022-12-29T11:41:56;99728.66;;;12.96;67.10
26657;BME280;14279;50.010;8.260;2022-12-29T11:44:22;99723.25;;;13.12;67.01
26657;BME280;14279;50.010;8.260;2022-12-29T11:46:50;99730.75;;;13.16;67.35
26657;BME280;14279;50.010;8.260;2022-12-29T11:49:22;99723.66;;;13.18;66.63
26657;BME280;14279;50.010;8.260;2022-12-29T11:51:49;99722.84;;;13.18;66.25
26657;BME280;14279;50.010;8.260;2022-12-29T11:54:25;99724.53;;;13.32;65.83
26657;BME280;14279;50.010;8.260;2022-12-29T11:56:52;99713.25;;;13.44;65.36
26657;BME280;14279;50.010;8.260;2022-12-29T12:01:52;99724.94;;;13.26;66.15
26657;BME280;14279;50.010;8.260;2022-12-29T12:04:18;99731.09;;;13.37;64.53
26657;BME280;14279;50.010;8.260;2022-12-29T12:09:26;99734.44;;;13.14;65.09
26657;BME280;14279;50.010;8.260;2022-12-29T12:11:54;99739.25;;;13.20;64.99
26657;BME280;14279;50.010;8.260;2022-12-29T12:14:48;99737.66;;;13.17;65.05
26657;BME280;14279;50.010;8.260;2022-12-29T12:17:27;99741.34;;;13.15;64.85
26657;BME280;14279;50.010;8.260;2022-12-29T12:20:10;99743.28;;;12.98;64.65
26657;BME280;14279;50.010;8.260;2022-12-29T12:25:38;99726.91;;;13.09;64.88
26657;BME280;14279;50.010;8.260;2022-12-29T12:30:47;99716.66;;;13.06;64.89
26657;BME280;14279;50.010;8.260;2022-12-29T12:33:20;99722.16;;;13.01;64.70
26657;BME280;14279;50.010;8.260;2022-12-29T12:36:25;99725.31;;;13.06;64.45
26657;BME280;14279;50.010;8.260;2022-12-29T12:39:10;99721.47;;;12.99;64.24
26657;BME280;14279;50.010;8.260;2022-12-29T12:45:15;99727.66;;;13.11;65.40
26657;BME280;14279;50.010;8.260;2022-12-29T12:47:27;99715.78;;;12.92;67.20
26657;BME280;14279;50.010;8.260;2022-12-29T12:50:13;99710.41;;;12.68;69.80
26657;BME280;14279;50.010;8.260;2022-12-29T12:55:43;99721.69;;;12.69;72.06
26657;BME280;14279;50.010;8.260;2022-12-29T12:58:35;99697.28;;;12.83;71.55
26657;BME280;14279;50.010;8.260;2022-12-29T13:06:41;99703.34;;;12.83;68.81
26657;BME280;14279;50.010;8.260;2022-12-29T13:17:27;99682.75;;;12.78;68.61
26657;BME280;14279;50.010;8.260;2022-12-29T13:22:48;99678.81;;;13.12;67.65
26657;BME280;14279;50.010;8.260;2022-12-29T13:27:49;99694.69;;;12.96;68.21
26657;BME280;14279;50.010;8.260;2022-12-29T13:30:21;99703.78;;;13.03;67.99
26657;BME280;14279;50.010;8.260;2022-12-29T13:35:47;99709.22;;;13.00;67.47
26657;BME280;14279;50.010;8.260;2022-12-29T13:38:26;99705.69;;;13.14;66.68
26657;BME280;14279;50.010;8.260;2022-12-29T13:41:00;99706.75;;;13.24;66.17
26657;BME280;14279;50.010;8.260;2022-12-29T13:43:28;99706.81;;;12.97;65.70
26657;BME280;14279;50.010;8.260;2022-12-29T13:46:16;99717.38;;;12.95;64.34
26657;BME280;14279;50.010;8.260;2022-12-29T13:48:57;99698.44;;;13.04;63.31
26657;BME280;14279;50.010;8.260;2022-12-29T13:51:24;99709.03;;;13.03;63.65
26657;BME280;14279;50.010;8.260;2022-12-29T13:54:01;99721.75;;;12.95;64.93
26657;BME280;14279;50.010;8.260;2022-12-29T13:56:32;99717.38;;;12.95;64.53
26657;BME280;14279;50.010;8.260;2022-12-29T13:59:08;99714.31;;;13.01;64.42
26657;BME280;14279;50.010;8.260;2022-12-29T14:01:53;99718.84;;;12.99;63.90
26657;BME280;14279;50.010;8.260;2022-12-29T14:04:23;99724.75;;;12.88;63.88
26657;BME280;14279;50.010;8.260;2022-12-29T14:07:04;99720.28;;;12.90;64.08
26657;BME280;14279;50.010;8.260;2022-12-29T14:12:39;99736.47;;;12.96;63.46
26657;BME280;14279;50.010;8.260;2022-12-29T14:17:34;99738.50;;;13.05;62.81
26657;BME280;14279;50.010;8.260;2022-12-29T14:20:00;99748.59;;;12.97;62.67
26657;BME280;14279;50.010;8.260;2022-12-29T14:22:27;99756.06;;;13.03;62.25
26657;BME280;14279;50.010;8.260;2022-12-29T14:24:53;99749.84;;;12.91;62.33
26657;BME280;14279;50.010;8.260;2022-12-29T14:29:45;99768.69;;;12.96;62.10
26657;BME280;14279;50.010;8.260;2022-12-29T14:34:45;99767.94;;;12.94;62.05
26657;BME280;14279;50.010;8.260;2022-12-29T14:37:31;99767.03;;;13.08;61.40
26657;BME280;14279;50.010;8.260;2022-12-29T14:42:44;99765.88;;;12.99;61.66
26657;BME280;14279;50.010;8.260;2022-12-29T14:47:45;99758.75;;;13.01;61.55